This is the latest recevied weather packets stored in our database for station/object WY7EM. If no packets are shown the sender has not sent any weather packets the latest 1 day(s).
| Time | Temp. | Humidity | Pressure | Rain* | Wind** | Luminosity | Snow |
|---|---|---|---|---|---|---|---|
| 1778005950 | 18.33° C | 24% | 1009.7 hPa | 0 mm | 0.45 m/s, 14° | 847 W/m² | - |
| 1778005634 | 18.33° C | 25% | 1009.8 hPa | 0 mm | 0.45 m/s, 295° | 840 W/m² | - |
| 1778005331 | 18.89° C | 24% | 1009.6 hPa | 0 mm | 0 m/s | 834 W/m² | - |
| 1778005028 | 18.33° C | 26% | 1009.7 hPa | 0 mm | 0.45 m/s, 50° | 829 W/m² | - |
| 1778004726 | 18.33° C | 26% | 1009.8 hPa | 0 mm | 2.24 m/s, 81° | 797 W/m² | - |
| 1778004421 | 17.78° C | 26% | 1009.9 hPa | 0 mm | 0.89 m/s, 63° | 815 W/m² | - |
| 1778004119 | 18.33° C | 26% | 1009.8 hPa | 0 mm | 0.89 m/s, 47° | 797 W/m² | - |
| 1778003814 | 17.78° C | 27% | 1010.2 hPa | 0 mm | 1.79 m/s, 250° | 797 W/m² | - |
| 1778003511 | 17.78° C | 27% | 1009.9 hPa | 0 mm | 1.34 m/s, 327° | 788 W/m² | - |
| 1778003208 | 18.33° C | 26% | 1010.1 hPa | 0 mm | 0.89 m/s, 77° | 775 W/m² | - |
| 1778002904 | 18.33° C | 26% | 1010.1 hPa | 0 mm | 0.45 m/s, 32° | 772 W/m² | - |
| 1778002601 | 17.22° C | 28% | 1010.2 hPa | 0 mm | 0.45 m/s, 34° | 764 W/m² | - |
| 1778002297 | 19.44° C | 26% | 1009.9 hPa | 0 mm | 0.89 m/s, 8° | 751 W/m² | - |
| 1778001995 | 18.33° C | 26% | 1010.1 hPa | 0 mm | 0.45 m/s, 10° | 739 W/m² | - |
| 1778001692 | 17.22° C | 28% | 1010.2 hPa | 0 mm | 0.45 m/s, 20° | 722 W/m² | - |
| 1778001386 | 16.67° C | 29% | 1010.3 hPa | 0 mm | 0.89 m/s, 7° | 710 W/m² | - |
| 1778001084 | 16.67° C | 29% | 1010.1 hPa | 0 mm | 1.79 m/s, 295° | 696 W/m² | - |
| 1778000781 | 17.22° C | 29% | 1009.9 hPa | 0 mm | 2.24 m/s, 332° | 680 W/m² | - |
| 1778000477 | 16.67° C | 29% | 1009.8 hPa | 0 mm | 2.24 m/s, 10° | 664 W/m² | - |
| 1778000172 | 17.22° C | 29% | 1010.1 hPa | 0 mm | 1.79 m/s, 353° | 651 W/m² | - |
| 1777999868 | 17.22° C | 29% | 1010.1 hPa | 0 mm | 2.24 m/s, 0° | 638 W/m² | - |
| 1777999564 | 16.11° C | 30% | 1009.9 hPa | 0 mm | 2.24 m/s, 266° | 625 W/m² | - |
| 1777999262 | 16.67° C | 30% | 1009.9 hPa | 0 mm | 1.34 m/s, 342° | 611 W/m² | - |
| 1777998960 | 16.11° C | 30% | 1010.1 hPa | 0 mm | 0.89 m/s, 324° | 597 W/m² | - |
| 1777998657 | 16.67° C | 29% | 1010.2 hPa | 0 mm | 1.79 m/s, 275° | 583 W/m² | - |
* Rain latest hour (hover to see other rain measurements)
** Current wind speed in m/s (hover to see current wind gust speed)